Time;durP1;ratioP1;P1;durP2;ratioP2;P2;SDS_P1;SDS_P2;PMS_P1;PMS_P2;Temp;Humidity;BMP_temperature;BMP_pressure;BME280_temperature;BME280_humidity;BME280_pressure;Samples;Min_cycle;Max_cycle;Signal;HPM_P1;HPM_P2
2022/01/29 00:01:53;;;;;;;8.90;2.83;;;;;;;;;;4954166;28;20456;-69
2022/01/29 00:04:20;;;;;;;8.13;2.43;;;;;;;;;;4936864;28;20464;-69
2022/01/29 00:06:47;;;;;;;7.53;2.37;;;;;;;;;;4954418;28;20464;-69
2022/01/29 00:09:15;;;;;;;5.97;2.00;;;;;;;;;;4949366;28;24004;-69
2022/01/29 00:11:42;;;;;;;7.10;2.00;;;;;;;;;;4950931;28;20813;-68
2022/01/29 00:14:10;;;;;;;7.20;1.50;;;;;;;;;;4954204;28;20467;-69
2022/01/29 00:16:36;;;;;;;5.60;1.83;;;;;;;;;;4951738;28;20824;-68
2022/01/29 00:19:03;;;;;;;4.20;1.33;;;;;;;;;;4958000;28;20463;-69
2022/01/29 00:21:30;;;;;;;4.17;1.60;;;;;;;;;;4957194;28;20471;-68
2022/01/29 00:23:56;;;;;;;3.73;1.70;;;;;;;;;;4951813;28;20496;-69
2022/01/29 00:26:25;;;;;;;5.47;1.80;;;;;;;;;;4951207;28;20759;-69
2022/01/29 00:28:52;;;;;;;5.50;1.60;;;;;;;;;;4955882;28;20468;-68
2022/01/29 00:31:19;;;;;;;6.67;1.60;;;;;;;;;;4954533;28;20468;-69
2022/01/29 00:33:46;;;;;;;4.03;1.90;;;;;;;;;;4951136;28;20827;-69
2022/01/29 00:36:13;;;;;;;5.80;1.87;;;;;;;;;;4959275;28;21206;-69
2022/01/29 00:38:39;;;;;;;3.53;1.60;;;;;;;;;;4954764;28;20474;-69
2022/01/29 00:41:06;;;;;;;5.10;1.40;;;;;;;;;;4971366;28;20468;-69
2022/01/29 00:43:34;;;;;;;5.23;1.70;;;;;;;;;;4970629;28;20455;-69
2022/01/29 00:46:00;;;;;;;3.67;1.70;;;;;;;;;;4974648;28;20467;-69
2022/01/29 00:48:27;;;;;;;4.73;1.93;;;;;;;;;;4956723;28;20810;-69
2022/01/29 00:50:54;;;;;;;7.20;1.63;;;;;;;;;;4973719;28;20475;-70
2022/01/29 00:53:21;;;;;;;6.83;2.00;;;;;;;;;;4975036;28;20602;-70
2022/01/29 00:55:48;;;;;;;6.97;2.10;;;;;;;;;;4977809;28;20467;-70
2022/01/29 00:58:15;;;;;;;8.27;1.97;;;;;;;;;;4957384;28;21001;-70
2022/01/29 01:00:44;;;;;;;7.60;2.10;;;;;;;;;;4974859;28;20460;-69
2022/01/29 01:03:11;;;;;;;5.17;2.10;;;;;;;;;;4955536;28;20467;-70
2022/01/29 01:40:36;;;;;;;6.93;1.70;;;;;;;;;;4969588;28;20471;-69
2022/01/29 01:43:02;;;;;;;5.77;2.00;;;;;;;;;;4975560;28;20455;-70
2022/01/29 01:45:29;;;;;;;5.13;2.03;;;;;;;;;;4971177;28;21363;-69
2022/01/29 01:47:56;;;;;;;6.60;1.77;;;;;;;;;;4974164;28;20478;-70
2022/01/29 01:50:23;;;;;;;6.67;2.00;;;;;;;;;;4952193;28;20451;-69
2022/01/29 01:52:50;;;;;;;4.53;1.67;;;;;;;;;;4957135;28;20552;-70
2022/01/29 01:55:17;;;;;;;8.63;2.50;;;;;;;;;;4966908;28;20443;-70
2022/01/29 01:57:43;;;;;;;5.13;2.00;;;;;;;;;;4964897;28;21065;-70
2022/01/29 02:00:10;;;;;;;4.83;2.20;;;;;;;;;;4984362;28;20462;-70
2022/01/29 02:02:40;;;;;;;6.83;1.90;;;;;;;;;;4976177;28;20855;-70
2022/01/29 02:05:07;;;;;;;9.60;2.33;;;;;;;;;;4979719;28;20452;-70
2022/01/29 02:07:34;;;;;;;4.67;2.13;;;;;;;;;;4974408;28;20787;-70
2022/01/29 02:10:01;;;;;;;6.13;1.80;;;;;;;;;;4959993;28;20543;-70
2022/01/29 02:12:31;;;;;;;6.27;2.10;;;;;;;;;;4974764;28;20527;-70
2022/01/29 02:15:02;;;;;;;4.90;2.00;;;;;;;;;;4980399;28;20783;-69
2022/01/29 02:17:29;;;;;;;6.17;1.60;;;;;;;;;;4979692;28;20529;-69
2022/01/29 02:19:56;;;;;;;5.27;2.17;;;;;;;;;;4979900;28;20969;-70
2022/01/29 02:22:23;;;;;;;6.03;1.70;;;;;;;;;;4978229;28;20562;-69
2022/01/29 02:24:49;;;;;;;6.93;2.23;;;;;;;;;;4962942;28;20466;-70
2022/01/29 02:27:16;;;;;;;7.90;1.83;;;;;;;;;;4980118;28;20447;-70
2022/01/29 02:29:44;;;;;;;7.07;1.90;;;;;;;;;;4985798;28;20475;-70
2022/01/29 02:32:11;;;;;;;3.23;1.40;;;;;;;;;;4974826;28;20555;-70
2022/01/29 02:34:37;;;;;;;5.63;2.13;;;;;;;;;;4985058;28;20459;-70
2022/01/29 02:37:04;;;;;;;7.50;1.83;;;;;;;;;;4976164;28;21026;-70
2022/01/29 02:39:31;;;;;;;6.07;1.90;;;;;;;;;;4983671;28;20459;-70
2022/01/29 02:41:58;;;;;;;10.87;2.47;;;;;;;;;;4980169;28;20486;-70
2022/01/29 02:44:24;;;;;;;7.53;2.40;;;;;;;;;;4983087;28;20465;-70
2022/01/29 02:46:53;;;;;;;7.57;2.43;;;;;;;;;;4984216;28;20462;-70
2022/01/29 02:49:21;;;;;;;6.03;2.40;;;;;;;;;;4969159;28;218654;-69
2022/01/29 02:51:48;;;;;;;6.70;2.70;;;;;;;;;;4987452;28;20548;-70
2022/01/29 02:54:15;;;;;;;7.73;1.93;;;;;;;;;;4999658;28;20468;-69
2022/01/29 02:56:42;;;;;;;6.83;2.07;;;;;;;;;;4982575;28;20470;-70
2022/01/29 02:59:08;;;;;;;8.07;1.67;;;;;;;;;;4997646;28;20462;-70
2022/01/29 03:01:35;;;;;;;3.63;1.07;;;;;;;;;;4994255;28;20529;-69
2022/01/29 03:04:02;;;;;;;5.73;1.80;;;;;;;;;;4984254;28;21186;-70
2022/01/29 03:06:30;;;;;;;7.33;1.70;;;;;;;;;;4977725;28;20462;-70
2022/01/29 03:08:57;;;;;;;9.60;2.20;;;;;;;;;;4976954;28;20513;-70
2022/01/29 03:11:23;;;;;;;5.93;1.77;;;;;;;;;;4972238;28;20456;-70
2022/01/29 03:13:50;;;;;;;6.17;2.00;;;;;;;;;;4974624;28;20486;-69
2022/01/29 03:16:17;;;;;;;5.87;1.80;;;;;;;;;;4976270;28;20474;-70
2022/01/29 03:18:44;;;;;;;5.87;1.50;;;;;;;;;;4976249;28;20443;-69
2022/01/29 03:21:10;;;;;;;4.97;1.13;;;;;;;;;;4977665;28;20466;-70
2022/01/29 03:23:37;;;;;;;3.67;1.27;;;;;;;;;;4972128;28;20958;-69
2022/01/29 03:26:04;;;;;;;3.70;1.10;;;;;;;;;;4979822;28;20451;-70
2022/01/29 03:28:31;;;;;;;1.53;0.73;;;;;;;;;;4975412;28;20475;-69
2022/01/29 03:30:57;;;;;;;5.47;1.27;;;;;;;;;;4977387;28;20462;-70
2022/01/29 03:33:24;;;;;;;9.43;2.13;;;;;;;;;;4971277;28;20510;-69
2022/01/29 03:35:51;;;;;;;10.40;2.17;;;;;;;;;;4976058;28;20459;-70
2022/01/29 03:38:17;;;;;;;4.53;1.70;;;;;;;;;;4971708;28;20459;-70
2022/01/29 03:40:47;;;;;;;8.03;1.73;;;;;;;;;;4972163;28;20551;-70
2022/01/29 03:43:23;;;;;;;5.13;1.60;;;;;;;;;;4974950;28;34459;-69
2022/01/29 03:45:49;;;;;;;3.97;1.80;;;;;;;;;;4960986;28;20451;-70
2022/01/29 03:48:16;;;;;;;5.30;1.50;;;;;;;;;;4975860;28;20466;-70
2022/01/29 03:50:43;;;;;;;5.17;2.17;;;;;;;;;;4971195;28;20462;-70
2022/01/29 03:53:09;;;;;;;5.67;2.00;;;;;;;;;;4957949;28;20463;-70
2022/01/29 03:55:36;;;;;;;4.63;1.83;;;;;;;;;;4962755;28;20444;-69
2022/01/29 03:58:03;;;;;;;5.77;1.80;;;;;;;;;;4980889;28;20470;-70
2022/01/29 04:00:30;;;;;;;8.03;2.23;;;;;;;;;;4966367;28;20458;-69
2022/01/29 04:02:56;;;;;;;5.47;2.30;;;;;;;;;;4967986;28;20460;-70
2022/01/29 04:05:26;;;;;;;15.10;2.80;;;;;;;;;;4973284;28;20466;-69
2022/01/29 04:07:52;;;;;;;8.97;2.77;;;;;;;;;;4972758;28;20471;-69
2022/01/29 04:10:20;;;;;;;12.30;2.20;;;;;;;;;;4975324;28;21377;-70
2022/01/29 04:12:51;;;;;;;8.30;2.17;;;;;;;;;;4946716;28;20483;-69
2022/01/29 04:15:17;;;;;;;8.00;2.50;;;;;;;;;;4956684;28;20467;-69
2022/01/29 04:17:44;;;;;;;4.90;2.27;;;;;;;;;;4978447;28;20450;-70
2022/01/29 04:20:11;;;;;;;14.30;2.60;;;;;;;;;;4976403;28;20970;-70
2022/01/29 04:22:37;;;;;;;8.07;2.37;;;;;;;;;;4974763;28;20460;-70
2022/01/29 04:25:04;;;;;;;10.67;3.10;;;;;;;;;;4971028;28;20959;-70
2022/01/29 04:27:36;;;;;;;11.73;3.03;;;;;;;;;;4975099;28;20467;-70
2022/01/29 04:30:08;;;;;;;9.63;3.13;;;;;;;;;;4972359;28;20459;-69
2022/01/29 04:32:58;;;;;;;9.70;2.57;;;;;;;;;;4963872;28;20464;-69
2022/01/29 04:35:22;;;;;;;9.10;1.80;;;;;;;;;;4975109;28;20461;-70
2022/01/29 04:37:50;;;;;;;10.00;3.00;;;;;;;;;;4972002;28;20455;-69
2022/01/29 04:40:17;;;;;;;10.07;2.70;;;;;;;;;;4970578;28;20472;-69
2022/01/29 04:42:43;;;;;;;4.33;2.10;;;;;;;;;;4979351;28;20471;-69
2022/01/29 04:45:10;;;;;;;4.30;1.53;;;;;;;;;;4977044;28;20464;-69
2022/01/29 04:47:36;;;;;;;8.73;3.17;;;;;;;;;;4976677;28;20456;-70
2022/01/29 04:50:04;;;;;;;11.10;3.13;;;;;;;;;;4980801;28;20471;-70
2022/01/29 04:52:30;;;;;;;8.60;3.47;;;;;;;;;;4964142;28;20463;-70
2022/01/29 04:54:57;;;;;;;3.80;2.23;;;;;;;;;;4976495;28;21261;-70
2022/01/29 04:57:23;;;;;;;9.60;3.07;;;;;;;;;;4953719;28;20466;-70
2022/01/29 04:59:50;;;;;;;8.80;3.20;;;;;;;;;;4977105;28;20823;-70
2022/01/29 05:02:17;;;;;;;10.17;2.50;;;;;;;;;;4964677;28;217711;-69
2022/01/29 05:04:43;;;;;;;7.70;2.80;;;;;;;;;;4977902;28;20477;-70
2022/01/29 05:07:10;;;;;;;8.07;2.33;;;;;;;;;;4975320;28;20465;-69
2022/01/29 05:09:37;;;;;;;11.80;2.63;;;;;;;;;;4957996;28;20830;-70
2022/01/29 05:12:04;;;;;;;8.77;2.20;;;;;;;;;;4955927;28;20641;-69
2022/01/29 05:15:02;;;;;;;10.50;2.17;;;;;;;;;;4971514;28;20876;-70
2022/01/29 05:28:30;;;;;;;10.60;2.73;;;;;;;;;;4976343;28;20470;-70
2022/01/29 05:30:56;;;;;;;11.03;2.50;;;;;;;;;;4972631;28;20467;-70
2022/01/29 05:33:23;;;;;;;14.77;3.07;;;;;;;;;;4974910;28;20468;-71
2022/01/29 05:35:50;;;;;;;7.57;2.47;;;;;;;;;;4962128;28;20463;-69
2022/01/29 05:38:16;;;;;;;5.60;2.90;;;;;;;;;;4976050;28;20471;-69
2022/01/29 05:40:43;;;;;;;7.20;2.10;;;;;;;;;;4972090;28;20459;-69
2022/01/29 05:43:10;;;;;;;13.60;3.23;;;;;;;;;;4959379;28;20560;-70
2022/01/29 05:45:36;;;;;;;4.33;1.60;;;;;;;;;;4976480;28;20463;-69
2022/01/29 05:48:03;;;;;;;6.80;1.50;;;;;;;;;;4973090;28;20459;-70
2022/01/29 05:50:30;;;;;;;13.50;3.10;;;;;;;;;;4973728;28;20491;-69
2022/01/29 05:52:57;;;;;;;9.57;2.90;;;;;;;;;;4972606;28;21218;-69
2022/01/29 05:55:24;;;;;;;9.80;3.27;;;;;;;;;;4977031;28;20463;-69
2022/01/29 05:57:50;;;;;;;9.00;3.40;;;;;;;;;;4935527;28;20476;-72
2022/01/29 06:00:17;;;;;;;14.17;3.03;;;;;;;;;;4970254;28;20464;-69
2022/01/29 06:02:44;;;;;;;13.60;2.40;;;;;;;;;;4963961;28;20456;-69
2022/01/29 06:05:11;;;;;;;11.23;2.60;;;;;;;;;;4945196;28;20468;-68
2022/01/29 06:07:37;;;;;;;14.57;2.67;;;;;;;;;;4972119;28;20862;-71
2022/01/29 06:10:04;;;;;;;8.80;2.70;;;;;;;;;;4966918;28;20471;-68
2022/01/29 06:12:36;;;;;;;9.87;2.40;;;;;;;;;;4964468;28;20447;-68
2022/01/29 06:15:03;;;;;;;6.73;2.37;;;;;;;;;;4949624;28;20471;-67
2022/01/29 06:17:29;;;;;;;7.70;2.13;;;;;;;;;;4971901;28;20575;-68
2022/01/29 06:19:56;;;;;;;11.97;2.87;;;;;;;;;;4967861;28;20984;-67
2022/01/29 06:22:24;;;;;;;13.47;3.40;;;;;;;;;;4956475;28;20489;-67
2022/01/29 06:24:50;;;;;;;9.63;2.67;;;;;;;;;;4951556;28;20471;-68
2022/01/29 06:27:17;;;;;;;16.60;3.30;;;;;;;;;;4954674;28;20555;-67
2022/01/29 06:29:43;;;;;;;12.47;2.97;;;;;;;;;;4959667;28;20483;-66
2022/01/29 06:32:10;;;;;;;12.10;2.83;;;;;;;;;;4962523;28;20468;-69
2022/01/29 06:34:37;;;;;;;7.90;3.07;;;;;;;;;;4971948;28;20474;-71
2022/01/29 06:37:03;;;;;;;12.67;2.17;;;;;;;;;;4952734;28;20227;-68
2022/01/29 06:39:30;;;;;;;14.77;3.87;;;;;;;;;;4970804;28;20483;-67
2022/01/29 06:41:57;;;;;;;5.13;2.50;;;;;;;;;;4956268;28;20490;-69
2022/01/29 06:44:23;;;;;;;21.63;3.33;;;;;;;;;;4959925;28;20236;-68
2022/01/29 06:46:50;;;;;;;5.40;2.33;;;;;;;;;;4969855;28;20530;-68
2022/01/29 06:49:17;;;;;;;8.93;3.60;;;;;;;;;;4967574;28;20920;-68
2022/01/29 06:51:44;;;;;;;12.37;3.63;;;;;;;;;;4949032;28;20565;-68
2022/01/29 06:54:10;;;;;;;13.33;4.17;;;;;;;;;;4952079;28;20481;-68
2022/01/29 06:56:37;;;;;;;10.50;3.10;;;;;;;;;;4968742;28;20467;-68
2022/01/29 06:59:04;;;;;;;17.50;3.33;;;;;;;;;;4963979;28;20493;-69
2022/01/29 07:01:36;;;;;;;11.00;3.53;;;;;;;;;;4969101;28;20546;-71
2022/01/29 07:04:03;;;;;;;13.33;4.30;;;;;;;;;;4981987;28;29245;-68
2022/01/29 07:06:29;;;;;;;5.57;2.07;;;;;;;;;;4946685;28;20463;-68
2022/01/29 07:08:57;;;;;;;15.03;3.93;;;;;;;;;;4964319;28;20467;-68
2022/01/29 07:11:25;;;;;;;9.77;2.27;;;;;;;;;;4966640;28;20475;-68
2022/01/29 07:14:00;;;;;;;7.10;3.20;;;;;;;;;;4974853;28;20463;-69
2022/01/29 07:16:27;;;;;;;8.87;3.17;;;;;;;;;;4950477;28;20466;-70
2022/01/29 07:18:54;;;;;;;9.47;3.03;;;;;;;;;;4962456;28;20476;-68
2022/01/29 07:21:21;;;;;;;9.20;3.47;;;;;;;;;;4971190;28;20452;-71
2022/01/29 07:23:47;;;;;;;37.13;4.23;;;;;;;;;;4967721;28;20881;-70
2022/01/29 07:26:14;;;;;;;16.80;3.80;;;;;;;;;;4962560;28;20495;-70
2022/01/29 07:28:41;;;;;;;14.80;3.70;;;;;;;;;;4961113;28;20863;-70
2022/01/29 07:31:07;;;;;;;14.30;4.63;;;;;;;;;;4966583;28;20499;-68
2022/01/29 07:33:35;;;;;;;16.27;5.50;;;;;;;;;;4965828;28;24064;-69
2022/01/29 07:36:02;;;;;;;18.77;5.93;;;;;;;;;;4960178;28;20499;-69
2022/01/29 07:38:29;;;;;;;22.30;6.33;;;;;;;;;;4966293;28;20474;-69
2022/01/29 07:40:55;;;;;;;9.70;3.50;;;;;;;;;;4960273;28;20486;-68
2022/01/29 07:43:22;;;;;;;21.20;5.03;;;;;;;;;;4973850;28;20459;-69
2022/01/29 07:45:49;;;;;;;13.90;4.70;;;;;;;;;;4955682;28;20467;-69
2022/01/29 07:48:15;;;;;;;13.57;4.30;;;;;;;;;;4953756;28;26767;-69
2022/01/29 07:50:42;;;;;;;18.13;5.87;;;;;;;;;;4964336;28;20466;-71
2022/01/29 07:53:09;;;;;;;13.40;5.00;;;;;;;;;;4977930;28;20470;-68
2022/01/29 07:55:35;;;;;;;17.40;5.33;;;;;;;;;;4961298;28;20994;-69
2022/01/29 07:58:02;;;;;;;9.90;4.30;;;;;;;;;;4970267;28;20474;-69
2022/01/29 08:00:34;;;;;;;15.47;5.37;;;;;;;;;;4953369;28;20461;-69
2022/01/29 08:03:01;;;;;;;14.90;4.43;;;;;;;;;;4957824;28;221895;-68
2022/01/29 08:05:28;;;;;;;13.13;4.27;;;;;;;;;;4968161;28;24850;-69
2022/01/29 08:07:54;;;;;;;10.27;2.90;;;;;;;;;;4925921;28;20870;-69
2022/01/29 08:10:22;;;;;;;5.97;2.67;;;;;;;;;;4957784;28;20465;-70
2022/01/29 08:12:48;;;;;;;9.33;3.47;;;;;;;;;;4977687;28;20467;-69
2022/01/29 08:15:15;;;;;;;9.87;4.57;;;;;;;;;;4976383;28;20467;-69
2022/01/29 08:17:43;;;;;;;9.33;4.13;;;;;;;;;;4971583;28;21318;-70
2022/01/29 08:20:10;;;;;;;6.47;2.57;;;;;;;;;;4967020;28;20495;-69
2022/01/29 08:22:37;;;;;;;7.80;2.20;;;;;;;;;;4977244;28;20502;-69
2022/01/29 08:25:05;;;;;;;13.90;4.93;;;;;;;;;;4977245;28;20459;-69
2022/01/29 08:27:31;;;;;;;17.50;5.43;;;;;;;;;;4975661;28;20478;-69
2022/01/29 08:29:58;;;;;;;7.90;2.40;;;;;;;;;;4982434;28;20455;-69
2022/01/29 08:32:25;;;;;;;7.30;2.87;;;;;;;;;;4955952;28;20460;-69
2022/01/29 08:34:51;;;;;;;6.83;3.50;;;;;;;;;;4965301;28;20609;-69
2022/01/29 08:37:21;;;;;;;2.93;2.00;;;;;;;;;;4980360;28;24950;-69
2022/01/29 08:39:48;;;;;;;6.53;2.47;;;;;;;;;;4970777;28;20452;-69
2022/01/29 08:42:15;;;;;;;14.00;4.97;;;;;;;;;;4973061;28;20462;-69
2022/01/29 08:44:42;;;;;;;9.27;2.97;;;;;;;;;;4981076;28;20462;-69
2022/01/29 08:47:09;;;;;;;10.10;4.70;;;;;;;;;;4982645;28;20454;-69
2022/01/29 08:49:38;;;;;;;7.87;3.13;;;;;;;;;;4980885;28;20505;-69
2022/01/29 08:52:05;;;;;;;9.80;5.27;;;;;;;;;;4980360;28;20502;-70
2022/01/29 08:54:31;;;;;;;12.17;5.80;;;;;;;;;;4985039;28;20464;-69
2022/01/29 08:56:58;;;;;;;9.83;4.60;;;;;;;;;;4980792;28;28688;-69
2022/01/29 08:59:25;;;;;;;11.50;4.97;;;;;;;;;;4986672;28;20466;-69
2022/01/29 09:01:52;;;;;;;11.97;6.00;;;;;;;;;;4994156;28;20555;-69
2022/01/29 09:04:19;;;;;;;11.83;4.93;;;;;;;;;;4990034;28;21262;-69
2022/01/29 09:06:46;;;;;;;13.03;5.97;;;;;;;;;;4975639;28;20478;-69
2022/01/29 09:09:18;;;;;;;9.27;5.20;;;;;;;;;;4970546;28;26393;-69
2022/01/29 09:11:45;;;;;;;14.90;6.80;;;;;;;;;;4970899;28;20956;-70
2022/01/29 09:14:11;;;;;;;9.93;5.67;;;;;;;;;;4962205;28;20468;-69
2022/01/29 09:16:38;;;;;;;11.60;4.03;;;;;;;;;;4973157;28;20463;-69
2022/01/29 09:19:05;;;;;;;8.10;4.80;;;;;;;;;;4955491;28;20474;-69
2022/01/29 09:21:32;;;;;;;11.40;5.23;;;;;;;;;;4956233;28;20463;-69
2022/01/29 09:23:59;;;;;;;12.83;6.33;;;;;;;;;;4971857;28;20463;-69
2022/01/29 09:26:26;;;;;;;6.77;3.63;;;;;;;;;;4961981;28;20537;-69
2022/01/29 09:28:52;;;;;;;16.13;7.20;;;;;;;;;;4972993;28;20714;-69
2022/01/29 09:31:19;;;;;;;8.03;3.70;;;;;;;;;;4971115;28;20557;-69
2022/01/29 09:33:46;;;;;;;12.57;5.90;;;;;;;;;;4966365;28;20495;-69
2022/01/29 09:36:12;;;;;;;10.27;6.43;;;;;;;;;;4973074;28;20478;-69
2022/01/29 09:38:39;;;;;;;8.17;3.43;;;;;;;;;;4963290;28;20797;-69
2022/01/29 09:41:06;;;;;;;9.70;3.77;;;;;;;;;;4960030;28;20509;-69
2022/01/29 09:43:33;;;;;;;8.00;4.00;;;;;;;;;;4970230;28;20539;-68
2022/01/29 09:46:00;;;;;;;4.73;2.47;;;;;;;;;;4974378;28;20498;-68
2022/01/29 09:48:30;;;;;;;9.07;4.50;;;;;;;;;;4969482;28;20500;-68
2022/01/29 09:50:57;;;;;;;4.13;3.13;;;;;;;;;;4977459;28;20505;-68
2022/01/29 09:53:23;;;;;;;7.97;5.10;;;;;;;;;;4968936;28;20529;-68
2022/01/29 09:55:50;;;;;;;5.43;3.00;;;;;;;;;;4969948;28;20311;-68
2022/01/29 09:58:18;;;;;;;9.33;4.30;;;;;;;;;;4977487;28;20468;-68
2022/01/29 10:00:45;;;;;;;6.20;3.50;;;;;;;;;;4969214;28;20247;-68
2022/01/29 10:03:12;;;;;;;7.53;4.07;;;;;;;;;;4960554;28;20471;-68
2022/01/29 10:05:40;;;;;;;6.00;3.67;;;;;;;;;;4956101;28;20863;-68
2022/01/29 10:08:07;;;;;;;4.27;2.67;;;;;;;;;;4963756;28;20462;-68
2022/01/29 10:10:37;;;;;;;8.37;3.40;;;;;;;;;;4981111;28;20469;-68
2022/01/29 10:13:23;;;;;;;7.50;3.77;;;;;;;;;;4974403;28;20470;-68
2022/01/29 10:15:50;;;;;;;2.17;1.93;;;;;;;;;;4967361;28;20258;-68
2022/01/29 10:18:23;;;;;;;6.07;3.43;;;;;;;;;;4971672;28;20460;-68
2022/01/29 10:20:50;;;;;;;4.93;3.07;;;;;;;;;;4957754;28;20926;-68
2022/01/29 10:23:17;;;;;;;5.13;2.73;;;;;;;;;;4972730;28;20470;-68
2022/01/29 10:25:44;;;;;;;7.13;3.47;;;;;;;;;;4978837;28;20478;-68
2022/01/29 10:28:15;;;;;;;6.90;3.87;;;;;;;;;;4975379;28;20463;-68
2022/01/29 10:30:47;;;;;;;6.80;3.30;;;;;;;;;;4977007;28;20464;-68
2022/01/29 10:33:21;;;;;;;4.00;1.90;;;;;;;;;;4975176;28;20628;-68
2022/01/29 10:35:49;;;;;;;7.57;4.57;;;;;;;;;;4974973;28;20330;-68
2022/01/29 10:38:20;;;;;;;7.17;4.00;;;;;;;;;;4959052;28;23786;-67
2022/01/29 10:40:47;;;;;;;8.10;5.10;;;;;;;;;;4976776;28;21072;-68
2022/01/29 10:43:14;;;;;;;7.93;4.13;;;;;;;;;;4966558;28;20912;-68
2022/01/29 10:45:41;;;;;;;10.60;3.53;;;;;;;;;;4974701;28;20456;-68
2022/01/29 10:48:08;;;;;;;3.87;2.47;;;;;;;;;;4974637;28;20626;-68
2022/01/29 10:50:35;;;;;;;7.07;3.77;;;;;;;;;;4941029;28;20483;-68
2022/01/29 10:53:20;;;;;;;5.80;3.13;;;;;;;;;;4948247;28;20868;-67
2022/01/29 10:55:57;;;;;;;8.63;4.30;;;;;;;;;;4943638;28;20461;-68
2022/01/29 10:58:23;;;;;;;5.63;3.07;;;;;;;;;;4961131;28;20487;-68
2022/01/29 11:01:09;;;;;;;7.37;3.83;;;;;;;;;;4967309;28;20476;-67
2022/01/29 11:03:37;;;;;;;9.40;5.57;;;;;;;;;;4982406;28;20454;-68
2022/01/29 11:06:04;;;;;;;4.87;2.30;;;;;;;;;;4984604;28;21159;-68
2022/01/29 11:08:30;;;;;;;4.63;2.57;;;;;;;;;;4948570;28;20470;-68
2022/01/29 11:10:57;;;;;;;3.50;2.20;;;;;;;;;;4963939;28;20463;-68
2022/01/29 11:13:35;;;;;;;7.13;4.33;;;;;;;;;;4947518;28;20455;-68
2022/01/29 11:16:02;;;;;;;5.77;3.40;;;;;;;;;;4967714;28;20456;-68
2022/01/29 11:18:33;;;;;;;6.60;3.03;;;;;;;;;;4982934;28;20487;-68
2022/01/29 11:21:01;;;;;;;5.03;2.93;;;;;;;;;;4974780;28;20553;-68
2022/01/29 11:23:29;;;;;;;4.63;2.93;;;;;;;;;;4981393;28;20232;-68
2022/01/29 11:25:57;;;;;;;9.27;4.87;;;;;;;;;;4983177;28;20819;-68
2022/01/29 11:28:26;;;;;;;6.97;3.73;;;;;;;;;;4962365;28;20479;-68
2022/01/29 11:31:18;;;;;;;3.87;2.17;;;;;;;;;;4960285;28;20463;-68
2022/01/29 11:33:57;;;;;;;4.93;3.20;;;;;;;;;;4957606;28;20308;-68
2022/01/29 11:36:42;;;;;;;5.50;2.87;;;;;;;;;;4970370;28;20514;-68
2022/01/29 11:39:18;;;;;;;4.70;1.70;;;;;;;;;;4961473;28;21233;-68
2022/01/29 11:41:45;;;;;;;4.70;2.70;;;;;;;;;;4940216;28;20802;-68
2022/01/29 11:44:25;;;;;;;4.07;2.37;;;;;;;;;;4966422;28;25718;-68
2022/01/29 11:46:55;;;;;;;5.33;2.77;;;;;;;;;;4979438;28;20477;-68
2022/01/29 11:49:22;;;;;;;4.93;2.37;;;;;;;;;;4981878;28;21247;-68
2022/01/29 11:51:49;;;;;;;8.30;3.37;;;;;;;;;;4970632;28;20551;-69
2022/01/29 11:54:25;;;;;;;4.73;2.90;;;;;;;;;;4971543;28;21053;-68
2022/01/29 11:57:14;;;;;;;3.67;2.70;;;;;;;;;;4980316;28;20460;-69
2022/01/29 11:59:42;;;;;;;4.27;2.53;;;;;;;;;;4963963;28;20461;-68
2022/01/29 12:02:15;;;;;;;1.67;1.13;;;;;;;;;;4958288;28;20240;-68
2022/01/29 12:04:53;;;;;;;5.20;2.67;;;;;;;;;;4970413;28;24860;-68
2022/01/29 12:07:35;;;;;;;4.90;2.47;;;;;;;;;;4975595;28;20538;-68
2022/01/29 12:10:07;;;;;;;4.60;2.93;;;;;;;;;;4982671;28;20468;-68
2022/01/29 12:12:40;;;;;;;4.83;2.50;;;;;;;;;;4980592;28;20546;-68
2022/01/29 12:15:11;;;;;;;4.77;2.20;;;;;;;;;;4980898;28;20474;-68
2022/01/29 12:17:57;;;;;;;4.53;3.07;;;;;;;;;;4974224;28;20469;-68
2022/01/29 12:20:27;;;;;;;4.47;3.33;;;;;;;;;;4957268;28;20466;-68
2022/01/29 12:22:58;;;;;;;3.83;2.90;;;;;;;;;;4971583;28;20462;-68
2022/01/29 12:25:28;;;;;;;5.33;2.90;;;;;;;;;;4971869;28;20457;-68
2022/01/29 12:27:58;;;;;;;5.77;3.50;;;;;;;;;;4956258;28;20471;-68
2022/01/29 12:30:28;;;;;;;4.80;2.23;;;;;;;;;;4976438;28;20529;-68
2022/01/29 12:33:01;;;;;;;2.70;1.67;;;;;;;;;;4978550;28;20456;-68
2022/01/29 12:35:34;;;;;;;5.93;3.33;;;;;;;;;;4957607;28;20482;-68
2022/01/29 12:38:01;;;;;;;4.57;2.70;;;;;;;;;;4979445;28;20469;-68
2022/01/29 12:40:35;;;;;;;4.57;2.67;;;;;;;;;;4980799;28;21213;-68
2022/01/29 12:43:10;;;;;;;3.73;1.87;;;;;;;;;;4974320;28;21180;-68
2022/01/29 12:45:38;;;;;;;5.60;2.67;;;;;;;;;;4976224;28;20465;-68
2022/01/29 12:48:08;;;;;;;4.80;2.80;;;;;;;;;;4975320;28;20507;-68
2022/01/29 12:50:36;;;;;;;4.57;3.10;;;;;;;;;;4982306;28;20470;-68
2022/01/29 12:53:04;;;;;;;6.53;2.80;;;;;;;;;;4996370;28;21281;-69
2022/01/29 12:55:30;;;;;;;8.83;4.10;;;;;;;;;;4970940;28;20471;-68
2022/01/29 12:57:58;;;;;;;4.47;2.00;;;;;;;;;;4978858;28;20460;-69
2022/01/29 13:00:25;;;;;;;4.50;2.27;;;;;;;;;;4982203;28;20459;-68
2022/01/29 13:02:52;;;;;;;5.77;2.17;;;;;;;;;;4979663;28;20474;-68
2022/01/29 13:05:19;;;;;;;4.13;2.10;;;;;;;;;;4982033;28;20462;-69
2022/01/29 13:07:46;;;;;;;3.53;2.60;;;;;;;;;;4976138;28;20251;-69
2022/01/29 13:10:13;;;;;;;6.17;3.23;;;;;;;;;;4967759;28;20460;-68
2022/01/29 13:12:43;;;;;;;4.07;1.77;;;;;;;;;;4977692;28;20469;-69
2022/01/29 13:15:10;;;;;;;6.07;2.07;;;;;;;;;;4982584;28;20795;-68
2022/01/29 13:17:42;;;;;;;3.10;2.23;;;;;;;;;;4970074;28;20466;-68
2022/01/29 13:20:13;;;;;;;5.27;3.17;;;;;;;;;;4961537;28;20529;-66
2022/01/29 13:22:41;;;;;;;3.40;1.93;;;;;;;;;;4959061;28;20858;-68
2022/01/29 13:25:09;;;;;;;3.20;1.60;;;;;;;;;;4969282;28;20298;-69
2022/01/29 13:27:43;;;;;;;3.47;1.90;;;;;;;;;;4958398;28;20449;-68
2022/01/29 13:30:21;;;;;;;6.07;2.30;;;;;;;;;;4963233;28;29174;-70
2022/01/29 13:32:49;;;;;;;2.83;1.97;;;;;;;;;;4936186;28;21213;-69
2022/01/29 13:35:16;;;;;;;2.30;1.53;;;;;;;;;;4960718;28;20539;-70
2022/01/29 13:37:43;;;;;;;8.33;3.30;;;;;;;;;;4968596;28;20969;-67
2022/01/29 13:40:18;;;;;;;3.30;1.90;;;;;;;;;;4961591;28;20471;-67
2022/01/29 13:43:12;;;;;;;3.70;2.40;;;;;;;;;;4947417;28;20540;-68
2022/01/29 13:45:48;;;;;;;2.87;2.00;;;;;;;;;;4966363;28;21020;-67
2022/01/29 13:48:15;;;;;;;5.20;2.30;;;;;;;;;;4955855;28;20462;-68
2022/01/29 13:50:43;;;;;;;3.67;2.07;;;;;;;;;;4977416;28;20462;-67
2022/01/29 13:53:11;;;;;;;3.87;1.93;;;;;;;;;;4979291;28;20497;-67
2022/01/29 13:55:57;;;;;;;2.83;1.63;;;;;;;;;;4980308;28;20463;-67
2022/01/29 13:58:24;;;;;;;3.70;2.03;;;;;;;;;;4954886;28;20572;-68
2022/01/29 14:00:58;;;;;;;3.00;1.77;;;;;;;;;;4942037;28;21023;-66
2022/01/29 14:03:44;;;;;;;3.43;2.13;;;;;;;;;;4967011;28;20482;-67
2022/01/29 14:06:20;;;;;;;1.47;1.13;;;;;;;;;;4970204;28;20457;-67
2022/01/29 14:09:06;;;;;;;2.07;1.50;;;;;;;;;;4970856;28;20547;-68
2022/01/29 14:11:51;;;;;;;4.80;1.30;;;;;;;;;;4981295;28;20465;-67
2022/01/29 14:14:32;;;;;;;2.37;1.30;;;;;;;;;;4969835;28;20497;-67
2022/01/29 14:17:00;;;;;;;1.97;1.50;;;;;;;;;;4964228;28;20543;-68
2022/01/29 14:19:29;;;;;;;1.33;0.90;;;;;;;;;;4969376;28;20458;-68
2022/01/29 14:21:57;;;;;;;1.90;1.20;;;;;;;;;;4978142;28;20532;-67
2022/01/29 14:24:25;;;;;;;3.20;1.53;;;;;;;;;;4971839;28;20508;-68
2022/01/29 14:26:57;;;;;;;5.03;1.10;;;;;;;;;;4972781;28;20557;-68
2022/01/29 14:29:25;;;;;;;1.20;0.90;;;;;;;;;;4954905;28;20562;-68
2022/01/29 14:32:14;;;;;;;1.93;1.30;;;;;;;;;;4970072;28;20257;-67
2022/01/29 14:34:41;;;;;;;4.43;1.63;;;;;;;;;;4964337;28;20530;-67
2022/01/29 14:37:10;;;;;;;2.47;1.97;;;;;;;;;;4950978;28;21190;-67
2022/01/29 14:39:41;;;;;;;2.67;1.80;;;;;;;;;;4962112;28;20459;-67
2022/01/29 14:42:10;;;;;;;2.60;1.77;;;;;;;;;;4975174;28;20238;-67
2022/01/29 14:44:43;;;;;;;2.93;1.97;;;;;;;;;;4976699;28;20497;-67
2022/01/29 14:47:10;;;;;;;2.67;1.93;;;;;;;;;;4972150;28;20447;-67
2022/01/29 14:49:36;;;;;;;2.50;1.80;;;;;;;;;;4981636;28;20461;-67
2022/01/29 14:52:05;;;;;;;3.43;2.30;;;;;;;;;;4960828;28;20995;-67
2022/01/29 14:54:32;;;;;;;3.47;1.90;;;;;;;;;;4971382;28;21023;-68
2022/01/29 14:56:59;;;;;;;4.30;2.07;;;;;;;;;;4978248;28;20467;-67
2022/01/29 14:59:26;;;;;;;3.37;2.30;;;;;;;;;;4959736;28;20229;-68
2022/01/29 15:01:53;;;;;;;3.93;2.03;;;;;;;;;;4961890;28;20464;-67
2022/01/29 15:04:21;;;;;;;3.90;1.40;;;;;;;;;;4943734;28;20228;-68
2022/01/29 15:06:48;;;;;;;2.63;1.40;;;;;;;;;;4972598;28;20532;-67
2022/01/29 15:09:17;;;;;;;3.53;1.93;;;;;;;;;;4971005;28;20225;-67
2022/01/29 15:11:44;;;;;;;4.73;2.13;;;;;;;;;;4978463;28;20557;-67
2022/01/29 15:14:14;;;;;;;2.73;1.77;;;;;;;;;;4977406;28;21002;-67
2022/01/29 15:16:40;;;;;;;2.90;1.93;;;;;;;;;;4965394;28;20323;-68
2022/01/29 15:19:08;;;;;;;3.63;2.00;;;;;;;;;;4982048;28;20493;-67
2022/01/29 15:21:37;;;;;;;4.37;2.10;;;;;;;;;;4972341;28;20845;-68
2022/01/29 15:24:04;;;;;;;5.97;2.80;;;;;;;;;;4965075;28;20455;-67
2022/01/29 15:26:31;;;;;;;5.63;3.10;;;;;;;;;;4969786;28;20840;-68
2022/01/29 15:29:05;;;;;;;2.87;2.10;;;;;;;;;;4979833;28;21397;-68
2022/01/29 15:31:33;;;;;;;4.37;2.37;;;;;;;;;;4970019;28;20584;-68
2022/01/29 15:34:02;;;;;;;4.50;2.50;;;;;;;;;;4970964;28;24202;-69
2022/01/29 15:36:41;;;;;;;4.10;1.60;;;;;;;;;;4971020;28;20471;-68